sensor_id;sensor_type;location;lat;lon;timestamp;pressure;altitude;pressure_sealevel;temperature;humidity
40850;BME280;26571;41.610;25.380;2023-08-08T00:01:24;97844.16;;;22.29;69.56
40850;BME280;26571;41.610;25.380;2023-08-08T00:03:49;97842.81;;;22.32;70.64
40850;BME280;26571;41.610;25.380;2023-08-08T00:06:15;97846.56;;;22.31;69.31
40850;BME280;26571;41.610;25.380;2023-08-08T00:08:40;97846.75;;;22.19;69.54
40850;BME280;26571;41.610;25.380;2023-08-08T00:11:06;97847.53;;;22.14;70.25
40850;BME280;26571;41.610;25.380;2023-08-08T00:13:31;97847.25;;;22.16;69.08
40850;BME280;26571;41.610;25.380;2023-08-08T00:15:57;97846.38;;;22.10;68.16
40850;BME280;26571;41.610;25.380;2023-08-08T00:18:22;97848.06;;;22.16;67.14
40850;BME280;26571;41.610;25.380;2023-08-08T00:20:47;97845.09;;;22.13;67.59
40850;BME280;26571;41.610;25.380;2023-08-08T00:23:12;97848.53;;;22.08;67.49
40850;BME280;26571;41.610;25.380;2023-08-08T00:25:38;97842.53;;;22.01;67.23
40850;BME280;26571;41.610;25.380;2023-08-08T00:28:03;97848.75;;;22.07;63.98
40850;BME280;26571;41.610;25.380;2023-08-08T00:30:28;97853.63;;;22.10;63.95
40850;BME280;26571;41.610;25.380;2023-08-08T00:32:54;97856.00;;;22.06;63.55
40850;BME280;26571;41.610;25.380;2023-08-08T00:35:19;97864.69;;;22.13;63.38
40850;BME280;26571;41.610;25.380;2023-08-08T00:37:44;97853.69;;;22.15;63.48
40850;BME280;26571;41.610;25.380;2023-08-08T00:40:09;97859.84;;;22.15;63.27
40850;BME280;26571;41.610;25.380;2023-08-08T00:42:35;97864.16;;;22.16;62.39
40850;BME280;26571;41.610;25.380;2023-08-08T00:45:00;97870.09;;;22.18;61.85
40850;BME280;26571;41.610;25.380;2023-08-08T00:47:29;97871.16;;;22.23;61.26
40850;BME280;26571;41.610;25.380;2023-08-08T00:49:55;97871.78;;;22.30;60.59
40850;BME280;26571;41.610;25.380;2023-08-08T00:52:20;97863.47;;;22.31;60.37
40850;BME280;26571;41.610;25.380;2023-08-08T00:54:46;97865.97;;;22.38;60.17
40850;BME280;26571;41.610;25.380;2023-08-08T00:57:11;97868.41;;;22.44;59.08
40850;BME280;26571;41.610;25.380;2023-08-08T00:59:37;97882.91;;;22.43;58.89
40850;BME280;26571;41.610;25.380;2023-08-08T01:02:02;97874.63;;;22.50;58.52
40850;BME280;26571;41.610;25.380;2023-08-08T01:04:28;97876.28;;;22.56;57.89
40850;BME280;26571;41.610;25.380;2023-08-08T01:09:23;97876.66;;;22.70;57.06
40850;BME280;26571;41.610;25.380;2023-08-08T01:11:50;97881.22;;;22.69;56.95
40850;BME280;26571;41.610;25.380;2023-08-08T01:14:17;97888.25;;;22.81;56.43
40850;BME280;26571;41.610;25.380;2023-08-08T01:16:43;97888.50;;;22.74;56.84
40850;BME280;26571;41.610;25.380;2023-08-08T01:19:10;97891.50;;;22.83;55.76
40850;BME280;26571;41.610;25.380;2023-08-08T01:21:37;97893.63;;;22.81;54.07
40850;BME280;26571;41.610;25.380;2023-08-08T01:26:46;97897.41;;;22.85;53.61
40850;BME280;26571;41.610;25.380;2023-08-08T01:29:12;97899.09;;;22.91;54.10
40850;BME280;26571;41.610;25.380;2023-08-08T01:31:37;97895.88;;;22.89;53.60
40850;BME280;26571;41.610;25.380;2023-08-08T01:34:02;97890.78;;;22.92;52.79
40850;BME280;26571;41.610;25.380;2023-08-08T01:36:30;97901.25;;;22.94;52.21
40850;BME280;26571;41.610;25.380;2023-08-08T01:38:58;97899.13;;;22.96;52.15
40850;BME280;26571;41.610;25.380;2023-08-08T01:41:27;97904.78;;;23.00;52.41
40850;BME280;26571;41.610;25.380;2023-08-08T01:43:53;97913.13;;;23.03;54.05
40850;BME280;26571;41.610;25.380;2023-08-08T01:46:18;97906.97;;;23.03;56.37
40850;BME280;26571;41.610;25.380;2023-08-08T01:48:44;97913.16;;;23.08;54.22
40850;BME280;26571;41.610;25.380;2023-08-08T01:51:09;97908.09;;;23.17;52.28
40850;BME280;26571;41.610;25.380;2023-08-08T01:53:35;97911.34;;;23.19;50.38
40850;BME280;26571;41.610;25.380;2023-08-08T01:56:00;97911.03;;;23.15;50.59
40850;BME280;26571;41.610;25.380;2023-08-08T01:58:25;97911.84;;;23.16;50.50
40850;BME280;26571;41.610;25.380;2023-08-08T02:00:51;97912.66;;;23.16;51.30
40850;BME280;26571;41.610;25.380;2023-08-08T02:03:16;97914.03;;;23.19;51.41
40850;BME280;26571;41.610;25.380;2023-08-08T02:05:41;97918.84;;;23.17;52.55
40850;BME280;26571;41.610;25.380;2023-08-08T02:08:06;97920.72;;;23.16;52.87
40850;BME280;26571;41.610;25.380;2023-08-08T02:10:32;97927.72;;;23.17;53.92
40850;BME280;26571;41.610;25.380;2023-08-08T02:12:57;97926.66;;;23.18;52.57
40850;BME280;26571;41.610;25.380;2023-08-08T02:15:22;97923.41;;;23.16;52.34
40850;BME280;26571;41.610;25.380;2023-08-08T02:17:49;97929.88;;;23.20;50.71
40850;BME280;26571;41.610;25.380;2023-08-08T02:20:15;97926.63;;;23.13;52.17
40850;BME280;26571;41.610;25.380;2023-08-08T02:22:40;97926.84;;;23.12;52.87
40850;BME280;26571;41.610;25.380;2023-08-08T02:25:05;97931.97;;;23.08;53.13
40850;BME280;26571;41.610;25.380;2023-08-08T02:27:31;97930.63;;;23.11;52.92
40850;BME280;26571;41.610;25.380;2023-08-08T02:29:56;97949.19;;;23.12;53.16
40850;BME280;26571;41.610;25.380;2023-08-08T02:32:23;97938.13;;;23.09;53.75
40850;BME280;26571;41.610;25.380;2023-08-08T02:34:48;97942.69;;;23.08;53.66
40850;BME280;26571;41.610;25.380;2023-08-08T02:37:13;97937.31;;;23.08;53.92
40850;BME280;26571;41.610;25.380;2023-08-08T02:39:39;97951.56;;;23.09;53.55
40850;BME280;26571;41.610;25.380;2023-08-08T02:42:04;97945.91;;;23.10;52.48
40850;BME280;26571;41.610;25.380;2023-08-08T02:44:29;97948.56;;;23.05;52.48
40850;BME280;26571;41.610;25.380;2023-08-08T02:46:55;97957.94;;;22.98;53.82
40850;BME280;26571;41.610;25.380;2023-08-08T02:49:20;97962.19;;;22.93;54.70
40850;BME280;26571;41.610;25.380;2023-08-08T02:51:45;97956.25;;;22.91;54.66
40850;BME280;26571;41.610;25.380;2023-08-08T02:54:10;97965.13;;;22.92;54.66
40850;BME280;26571;41.610;25.380;2023-08-08T02:56:36;97967.25;;;22.90;55.57
40850;BME280;26571;41.610;25.380;2023-08-08T02:59:01;97969.69;;;22.91;55.37
40850;BME280;26571;41.610;25.380;2023-08-08T03:01:26;97969.88;;;22.85;55.66
40850;BME280;26571;41.610;25.380;2023-08-08T03:03:51;97974.25;;;22.91;56.02
40850;BME280;26571;41.610;25.380;2023-08-08T03:06:17;97974.25;;;22.91;55.02
40850;BME280;26571;41.610;25.380;2023-08-08T03:08:42;97979.53;;;22.86;55.17
40850;BME280;26571;41.610;25.380;2023-08-08T03:11:08;97984.06;;;22.80;55.94
40850;BME280;26571;41.610;25.380;2023-08-08T03:13:33;97979.47;;;22.76;56.81
40850;BME280;26571;41.610;25.380;2023-08-08T03:15:58;97980.06;;;22.83;56.18
40850;BME280;26571;41.610;25.380;2023-08-08T03:18:24;97983.75;;;22.77;56.35
40850;BME280;26571;41.610;25.380;2023-08-08T03:20:51;97983.75;;;22.77;56.67
40850;BME280;26571;41.610;25.380;2023-08-08T03:23:16;97985.09;;;22.74;56.64
40850;BME280;26571;41.610;25.380;2023-08-08T03:25:41;97981.34;;;22.75;55.91
40850;BME280;26571;41.610;25.380;2023-08-08T03:28:06;97991.81;;;22.77;55.40
40850;BME280;26571;41.610;25.380;2023-08-08T03:30:32;97991.88;;;22.87;54.59
40850;BME280;26571;41.610;25.380;2023-08-08T03:32:57;97996.13;;;22.78;54.33
40850;BME280;26571;41.610;25.380;2023-08-08T03:35:22;97998.69;;;22.67;54.95
40850;BME280;26571;41.610;25.380;2023-08-08T03:37:48;97997.94;;;22.72;55.19
40850;BME280;26571;41.610;25.380;2023-08-08T03:40:13;97992.78;;;22.65;55.42
40850;BME280;26571;41.610;25.380;2023-08-08T03:42:41;97996.25;;;22.61;56.57
40850;BME280;26571;41.610;25.380;2023-08-08T03:45:06;98000.50;;;22.57;57.40
40850;BME280;26571;41.610;25.380;2023-08-08T03:47:32;98001.56;;;22.56;57.84
40850;BME280;26571;41.610;25.380;2023-08-08T03:49:57;97999.44;;;22.58;58.29
40850;BME280;26571;41.610;25.380;2023-08-08T03:52:23;98011.03;;;22.63;58.19
40850;BME280;26571;41.610;25.380;2023-08-08T03:54:48;98008.84;;;22.60;58.25
40850;BME280;26571;41.610;25.380;2023-08-08T03:57:14;98003.75;;;22.59;58.40
40850;BME280;26571;41.610;25.380;2023-08-08T03:59:39;98010.22;;;22.63;58.59
40850;BME280;26571;41.610;25.380;2023-08-08T04:02:04;98004.03;;;22.62;58.78
40850;BME280;26571;41.610;25.380;2023-08-08T04:04:29;98002.72;;;22.65;58.02
40850;BME280;26571;41.610;25.380;2023-08-08T04:06:55;98003.63;;;22.76;57.61
40850;BME280;26571;41.610;25.380;2023-08-08T04:09:20;98012.19;;;22.73;57.87
40850;BME280;26571;41.610;25.380;2023-08-08T04:11:46;98012.69;;;22.69;58.15
40850;BME280;26571;41.610;25.380;2023-08-08T04:14:11;98019.66;;;22.70;58.65
40850;BME280;26571;41.610;25.380;2023-08-08T04:16:36;98022.81;;;22.62;59.55
40850;BME280;26571;41.610;25.380;2023-08-08T04:19:01;98023.16;;;22.71;60.20
40850;BME280;26571;41.610;25.380;2023-08-08T04:21:28;98019.72;;;22.76;60.17
40850;BME280;26571;41.610;25.380;2023-08-08T04:23:54;98028.63;;;22.81;59.85
40850;BME280;26571;41.610;25.380;2023-08-08T04:26:19;98040.97;;;22.82;60.32
40850;BME280;26571;41.610;25.380;2023-08-08T04:28:44;98035.59;;;22.82;60.97
40850;BME280;26571;41.610;25.380;2023-08-08T04:31:09;98037.25;;;22.83;60.56
40850;BME280;26571;41.610;25.380;2023-08-08T04:33:35;98036.72;;;22.86;61.05
40850;BME280;26571;41.610;25.380;2023-08-08T04:36:00;98042.03;;;23.08;60.48
40850;BME280;26571;41.610;25.380;2023-08-08T04:38:25;98040.59;;;23.28;60.73
40850;BME280;26571;41.610;25.380;2023-08-08T04:40:50;98046.50;;;23.30;59.91
40850;BME280;26571;41.610;25.380;2023-08-08T04:43:16;98052.28;;;23.16;60.87
40850;BME280;26571;41.610;25.380;2023-08-08T04:45:41;98056.09;;;23.20;61.54
40850;BME280;26571;41.610;25.380;2023-08-08T04:48:06;98053.94;;;23.17;60.17
40850;BME280;26571;41.610;25.380;2023-08-08T04:50:31;98062.16;;;23.06;60.52
40850;BME280;26571;41.610;25.380;2023-08-08T04:52:57;98065.50;;;22.91;61.68
40850;BME280;26571;41.610;25.380;2023-08-08T04:55:22;98065.44;;;22.86;62.52
40850;BME280;26571;41.610;25.380;2023-08-08T04:57:47;98072.38;;;22.82;63.30
40850;BME280;26571;41.610;25.380;2023-08-08T05:00:13;98079.59;;;22.81;64.35
40850;BME280;26571;41.610;25.380;2023-08-08T05:02:39;98077.72;;;22.82;64.55
40850;BME280;26571;41.610;25.380;2023-08-08T05:05:06;98085.84;;;22.87;64.38
40850;BME280;26571;41.610;25.380;2023-08-08T05:07:31;98087.16;;;22.84;64.36
40850;BME280;26571;41.610;25.380;2023-08-08T05:09:56;98094.66;;;22.82;64.83
40850;BME280;26571;41.610;25.380;2023-08-08T05:12:22;98093.78;;;22.77;64.27
40850;BME280;26571;41.610;25.380;2023-08-08T05:14:47;98104.06;;;22.85;64.38
40850;BME280;26571;41.610;25.380;2023-08-08T05:17:12;98107.03;;;22.83;63.83
40850;BME280;26571;41.610;25.380;2023-08-08T05:19:37;98112.22;;;22.90;63.28
40850;BME280;26571;41.610;25.380;2023-08-08T05:22:03;98104.69;;;22.92;62.37
40850;BME280;26571;41.610;25.380;2023-08-08T05:24:28;98118.69;;;22.94;62.57
40850;BME280;26571;41.610;25.380;2023-08-08T05:26:53;98130.03;;;23.01;61.79
40850;BME280;26571;41.610;25.380;2023-08-08T05:29:19;98119.00;;;22.98;61.52
40850;BME280;26571;41.610;25.380;2023-08-08T05:31:45;98124.66;;;23.01;61.60
40850;BME280;26571;41.610;25.380;2023-08-08T05:34:11;98130.56;;;22.98;61.53
40850;BME280;26571;41.610;25.380;2023-08-08T05:36:36;98130.88;;;23.34;61.72
40850;BME280;26571;41.610;25.380;2023-08-08T05:39:03;98138.59;;;23.94;58.97
40850;BME280;26571;41.610;25.380;2023-08-08T05:41:28;98135.78;;;24.27;57.78
40850;BME280;26571;41.610;25.380;2023-08-08T05:43:53;98133.66;;;24.29;56.57
40850;BME280;26571;41.610;25.380;2023-08-08T05:46:19;98152.16;;;24.20;57.56
40850;BME280;26571;41.610;25.380;2023-08-08T05:48:44;98138.44;;;24.21;59.13
40850;BME280;26571;41.610;25.380;2023-08-08T05:51:09;98154.06;;;24.24;57.87
40850;BME280;26571;41.610;25.380;2023-08-08T05:53:35;98146.50;;;24.21;58.13
40850;BME280;26571;41.610;25.380;2023-08-08T05:56:00;98157.88;;;24.34;58.81
40850;BME280;26571;41.610;25.380;2023-08-08T05:58:25;98165.97;;;24.34;57.94
40850;BME280;26571;41.610;25.380;2023-08-08T06:00:51;98174.53;;;24.25;58.14
40850;BME280;26571;41.610;25.380;2023-08-08T06:03:17;98171.22;;;24.08;58.59
40850;BME280;26571;41.610;25.380;2023-08-08T06:05:42;98174.81;;;23.87;59.46
40850;BME280;26571;41.610;25.380;2023-08-08T06:08:07;98174.72;;;23.71;59.18
40850;BME280;26571;41.610;25.380;2023-08-08T06:10:36;98168.66;;;23.54;59.44
40850;BME280;26571;41.610;25.380;2023-08-08T06:13:02;98188.69;;;23.41;60.00
40850;BME280;26571;41.610;25.380;2023-08-08T06:15:27;98184.59;;;23.34;61.09
40850;BME280;26571;41.610;25.380;2023-08-08T06:17:52;98187.72;;;23.26;61.79
40850;BME280;26571;41.610;25.380;2023-08-08T06:20:18;98192.25;;;23.20;61.80
40850;BME280;26571;41.610;25.380;2023-08-08T06:22:43;98190.09;;;23.22;61.78
40850;BME280;26571;41.610;25.380;2023-08-08T06:25:08;98196.00;;;23.19;60.54
40850;BME280;26571;41.610;25.380;2023-08-08T06:27:33;98208.63;;;23.18;61.11
40850;BME280;26571;41.610;25.380;2023-08-08T06:29:59;98202.19;;;23.19;59.88
40850;BME280;26571;41.610;25.380;2023-08-08T06:32:24;98208.19;;;23.32;60.16
40850;BME280;26571;41.610;25.380;2023-08-08T06:34:49;98210.06;;;23.58;59.07
40850;BME280;26571;41.610;25.380;2023-08-08T06:37:15;98211.25;;;23.67;58.96
40850;BME280;26571;41.610;25.380;2023-08-08T06:39:40;98221.56;;;23.81;59.22
40850;BME280;26571;41.610;25.380;2023-08-08T06:42:06;98225.97;;;23.92;58.32
40850;BME280;26571;41.610;25.380;2023-08-08T06:44:32;98222.47;;;23.96;58.20
40850;BME280;26571;41.610;25.380;2023-08-08T06:46:58;98229.78;;;24.01;57.76
40850;BME280;26571;41.610;25.380;2023-08-08T06:49:23;98232.22;;;24.03;58.32
40850;BME280;26571;41.610;25.380;2023-08-08T06:51:48;98233.22;;;23.96;58.18
40850;BME280;26571;41.610;25.380;2023-08-08T06:54:13;98234.84;;;23.92;58.33
40850;BME280;26571;41.610;25.380;2023-08-08T06:56:39;98238.84;;;23.90;58.97
40850;BME280;26571;41.610;25.380;2023-08-08T06:59:04;98242.41;;;24.01;58.23
40850;BME280;26571;41.610;25.380;2023-08-08T07:01:29;98238.41;;;24.03;56.44
40850;BME280;26571;41.610;25.380;2023-08-08T07:03:55;98244.22;;;23.90;55.68
40850;BME280;26571;41.610;25.380;2023-08-08T07:06:20;98245.75;;;23.81;56.95
40850;BME280;26571;41.610;25.380;2023-08-08T07:08:45;98260.44;;;23.68;56.18
40850;BME280;26571;41.610;25.380;2023-08-08T07:11:10;98264.94;;;23.62;56.56
40850;BME280;26571;41.610;25.380;2023-08-08T07:13:36;98265.94;;;23.56;56.65
40850;BME280;26571;41.610;25.380;2023-08-08T07:16:01;98267.75;;;23.72;56.24
40850;BME280;26571;41.610;25.380;2023-08-08T07:18:27;98275.91;;;23.83;55.65
40850;BME280;26571;41.610;25.380;2023-08-08T07:20:52;98275.97;;;23.93;56.32
40850;BME280;26571;41.610;25.380;2023-08-08T07:23:18;98265.94;;;24.20;56.07
40850;BME280;26571;41.610;25.380;2023-08-08T07:25:43;98280.13;;;24.43;54.40
40850;BME280;26571;41.610;25.380;2023-08-08T07:28:08;98286.34;;;24.48;54.18
40850;BME280;26571;41.610;25.380;2023-08-08T07:30:34;98282.84;;;24.48;53.96
40850;BME280;26571;41.610;25.380;2023-08-08T07:32:59;98287.59;;;24.36;53.57
40850;BME280;26571;41.610;25.380;2023-08-08T07:35:25;98289.84;;;24.49;53.58
40850;BME280;26571;41.610;25.380;2023-08-08T07:37:50;98282.66;;;24.65;52.85
40850;BME280;26571;41.610;25.380;2023-08-08T07:40:16;98293.31;;;24.44;51.37
40850;BME280;26571;41.610;25.380;2023-08-08T07:42:43;98301.53;;;24.28;52.49
40850;BME280;26571;41.610;25.380;2023-08-08T07:45:08;98302.72;;;24.10;52.78
40850;BME280;26571;41.610;25.380;2023-08-08T07:47:34;98311.50;;;24.00;53.57
40850;BME280;26571;41.610;25.380;2023-08-08T07:50:00;98299.50;;;24.08;52.68
40850;BME280;26571;41.610;25.380;2023-08-08T07:52:26;98293.81;;;24.04;53.31
40850;BME280;26571;41.610;25.380;2023-08-08T07:54:51;98306.78;;;24.12;54.11
40850;BME280;26571;41.610;25.380;2023-08-08T07:57:16;98298.59;;;24.34;52.97
40850;BME280;26571;41.610;25.380;2023-08-08T07:59:42;98298.72;;;24.49;52.67
40850;BME280;26571;41.610;25.380;2023-08-08T08:02:07;98294.63;;;24.37;52.75
40850;BME280;26571;41.610;25.380;2023-08-08T08:04:33;98306.72;;;24.02;52.60
40850;BME280;26571;41.610;25.380;2023-08-08T08:06:58;98320.13;;;23.97;53.33
40850;BME280;26571;41.610;25.380;2023-08-08T08:09:23;98321.59;;;23.83;53.15
40850;BME280;26571;41.610;25.380;2023-08-08T08:11:48;98327.03;;;23.88;54.28
40850;BME280;26571;41.610;25.380;2023-08-08T08:14:14;98326.97;;;24.15;54.12
40850;BME280;26571;41.610;25.380;2023-08-08T08:16:39;98326.72;;;24.48;52.92
40850;BME280;26571;41.610;25.380;2023-08-08T08:19:04;98332.50;;;24.67;52.88
40850;BME280;26571;41.610;25.380;2023-08-08T08:21:29;98334.44;;;24.77;51.64
40850;BME280;26571;41.610;25.380;2023-08-08T08:23:55;98335.44;;;25.13;53.30
40850;BME280;26571;41.610;25.380;2023-08-08T08:26:20;98331.75;;;25.40;49.97
40850;BME280;26571;41.610;25.380;2023-08-08T08:28:45;98329.38;;;25.48;50.20
40850;BME280;26571;41.610;25.380;2023-08-08T08:31:10;98334.22;;;25.41;47.63
40850;BME280;26571;41.610;25.380;2023-08-08T08:33:36;98340.13;;;25.38;48.40
40850;BME280;26571;41.610;25.380;2023-08-08T08:36:01;98346.09;;;25.50;48.89
40850;BME280;26571;41.610;25.380;2023-08-08T08:38:26;98346.94;;;25.61;48.59
40850;BME280;26571;41.610;25.380;2023-08-08T08:40:52;98341.25;;;25.58;48.04
40850;BME280;26571;41.610;25.380;2023-08-08T08:43:19;98353.34;;;25.50;48.23
40850;BME280;26571;41.610;25.380;2023-08-08T08:45:46;98363.03;;;25.46;47.68
40850;BME280;26571;41.610;25.380;2023-08-08T08:48:15;98357.91;;;25.34;49.25
40850;BME280;26571;41.610;25.380;2023-08-08T08:50:40;98357.00;;;25.13;48.02
40850;BME280;26571;41.610;25.380;2023-08-08T08:53:06;98343.41;;;24.93;49.18
40850;BME280;26571;41.610;25.380;2023-08-08T08:55:32;98356.25;;;24.81;48.46
40850;BME280;26571;41.610;25.380;2023-08-08T08:57:57;98359.75;;;24.39;48.80
40850;BME280;26571;41.610;25.380;2023-08-08T09:00:22;98363.91;;;24.24;50.50
40850;BME280;26571;41.610;25.380;2023-08-08T09:02:49;98366.69;;;24.03;50.38
40850;BME280;26571;41.610;25.380;2023-08-08T09:05:15;98367.75;;;23.75;50.50
40850;BME280;26571;41.610;25.380;2023-08-08T09:07:43;98367.50;;;23.54;51.09
40850;BME280;26571;41.610;25.380;2023-08-08T09:10:08;98362.06;;;23.49;51.68
40850;BME280;26571;41.610;25.380;2023-08-08T09:12:34;98371.06;;;23.16;51.43
40850;BME280;26571;41.610;25.380;2023-08-08T09:14:59;98367.78;;;22.92;52.60
40850;BME280;26571;41.610;25.380;2023-08-08T09:17:25;98365.50;;;22.84;53.25
40850;BME280;26571;41.610;25.380;2023-08-08T09:19:52;98360.63;;;22.81;53.25
40850;BME280;26571;41.610;25.380;2023-08-08T09:22:18;98367.53;;;22.77;55.71
40850;BME280;26571;41.610;25.380;2023-08-08T09:24:43;98369.75;;;22.80;56.61
40850;BME280;26571;41.610;25.380;2023-08-08T09:27:08;98367.31;;;22.78;54.08
40850;BME280;26571;41.610;25.380;2023-08-08T09:29:35;98358.84;;;22.69;55.02
40850;BME280;26571;41.610;25.380;2023-08-08T09:32:02;98371.34;;;22.81;55.83
40850;BME280;26571;41.610;25.380;2023-08-08T09:34:28;98365.81;;;22.87;55.68
40850;BME280;26571;41.610;25.380;2023-08-08T09:36:53;98364.69;;;23.00;56.50
40850;BME280;26571;41.610;25.380;2023-08-08T09:39:19;98381.41;;;23.07;54.74
40850;BME280;26571;41.610;25.380;2023-08-08T09:41:45;98377.25;;;23.16;54.01
40850;BME280;26571;41.610;25.380;2023-08-08T09:44:11;98363.81;;;23.16;53.27
40850;BME280;26571;41.610;25.380;2023-08-08T09:46:36;98366.63;;;23.27;53.86
40850;BME280;26571;41.610;25.380;2023-08-08T09:49:02;98356.56;;;23.39;53.46
40850;BME280;26571;41.610;25.380;2023-08-08T09:51:28;98365.13;;;23.58;52.94
40850;BME280;26571;41.610;25.380;2023-08-08T09:53:53;98368.09;;;23.83;52.82
40850;BME280;26571;41.610;25.380;2023-08-08T09:56:19;98364.53;;;24.05;53.37
40850;BME280;26571;41.610;25.380;2023-08-08T09:58:46;98366.25;;;24.16;51.36
40850;BME280;26571;41.610;25.380;2023-08-08T10:01:11;98369.69;;;24.11;51.00
40850;BME280;26571;41.610;25.380;2023-08-08T10:03:37;98373.47;;;24.10;52.46
40850;BME280;26571;41.610;25.380;2023-08-08T10:06:03;98364.03;;;24.08;50.55
40850;BME280;26571;41.610;25.380;2023-08-08T10:08:28;98372.81;;;23.98;51.11
40850;BME280;26571;41.610;25.380;2023-08-08T10:10:55;98380.25;;;23.91;52.42
40850;BME280;26571;41.610;25.380;2023-08-08T10:13:21;98377.88;;;23.94;50.87
40850;BME280;26571;41.610;25.380;2023-08-08T10:15:47;98377.34;;;23.92;51.24
40850;BME280;26571;41.610;25.380;2023-08-08T10:18:12;98385.69;;;23.96;51.18
40850;BME280;26571;41.610;25.380;2023-08-08T10:20:38;98380.88;;;23.98;50.80
40850;BME280;26571;41.610;25.380;2023-08-08T10:23:04;98368.56;;;24.02;50.79
40850;BME280;26571;41.610;25.380;2023-08-08T10:25:32;98362.25;;;24.18;51.20
40850;BME280;26571;41.610;25.380;2023-08-08T10:28:17;98361.06;;;24.36;50.02
40850;BME280;26571;41.610;25.380;2023-08-08T10:30:44;98365.28;;;24.59;50.18
40850;BME280;26571;41.610;25.380;2023-08-08T10:33:19;98362.34;;;24.66;48.97
40850;BME280;26571;41.610;25.380;2023-08-08T10:38:16;98350.91;;;24.86;49.57
40850;BME280;26571;41.610;25.380;2023-08-08T10:40:42;98346.63;;;24.95;49.13
40850;BME280;26571;41.610;25.380;2023-08-08T10:43:13;98342.34;;;24.99;47.41
40850;BME280;26571;41.610;25.380;2023-08-08T10:45:42;98347.22;;;25.02;48.50
40850;BME280;26571;41.610;25.380;2023-08-08T10:48:08;98350.47;;;25.04;46.00
40850;BME280;26571;41.610;25.380;2023-08-08T10:50:37;98354.75;;;25.00;46.02
40850;BME280;26571;41.610;25.380;2023-08-08T10:53:03;98343.94;;;24.95;46.48
40850;BME280;26571;41.610;25.380;2023-08-08T10:55:34;98336.66;;;24.90;46.10
40850;BME280;26571;41.610;25.380;2023-08-08T10:58:04;98337.66;;;24.79;46.13
40850;BME280;26571;41.610;25.380;2023-08-08T11:00:31;98335.75;;;24.74;47.43
40850;BME280;26571;41.610;25.380;2023-08-08T11:02:57;98332.53;;;24.72;47.52
40850;BME280;26571;41.610;25.380;2023-08-08T11:05:23;98323.63;;;24.67;46.57
40850;BME280;26571;41.610;25.380;2023-08-08T11:07:48;98323.25;;;24.53;46.83
40850;BME280;26571;41.610;25.380;2023-08-08T11:10:13;98330.25;;;24.54;48.53
40850;BME280;26571;41.610;25.380;2023-08-08T11:12:39;98319.25;;;24.61;47.31
40850;BME280;26571;41.610;25.380;2023-08-08T11:15:04;98316.94;;;24.80;48.03
40850;BME280;26571;41.610;25.380;2023-08-08T11:17:30;98310.78;;;24.89;47.79
40850;BME280;26571;41.610;25.380;2023-08-08T11:19:55;98314.00;;;24.86;46.64
40850;BME280;26571;41.610;25.380;2023-08-08T11:22:21;98312.06;;;24.71;46.87
40850;BME280;26571;41.610;25.380;2023-08-08T11:24:48;98306.09;;;24.64;48.25
40850;BME280;26571;41.610;25.380;2023-08-08T11:27:14;98305.06;;;24.75;49.54
40850;BME280;26571;41.610;25.380;2023-08-08T11:29:40;98299.00;;;25.00;50.48
40850;BME280;26571;41.610;25.380;2023-08-08T11:32:05;98293.97;;;25.19;48.00
40850;BME280;26571;41.610;25.380;2023-08-08T11:34:32;98293.47;;;25.27;48.83
40850;BME280;26571;41.610;25.380;2023-08-08T11:36:59;98295.09;;;25.34;47.11
40850;BME280;26571;41.610;25.380;2023-08-08T11:39:24;98299.44;;;25.50;48.33
40850;BME280;26571;41.610;25.380;2023-08-08T11:41:49;98284.09;;;25.61;48.34
40850;BME280;26571;41.610;25.380;2023-08-08T11:44:15;98283.59;;;25.74;47.13
40850;BME280;26571;41.610;25.380;2023-08-08T11:46:43;98274.72;;;25.89;46.46
40850;BME280;26571;41.610;25.380;2023-08-08T11:49:08;98278.50;;;25.88;45.22
40850;BME280;26571;41.610;25.380;2023-08-08T11:51:34;98271.50;;;26.02;48.49
40850;BME280;26571;41.610;25.380;2023-08-08T11:54:00;98275.28;;;26.16;46.19
40850;BME280;26571;41.610;25.380;2023-08-08T11:56:26;98270.91;;;26.20;44.37
40850;BME280;26571;41.610;25.380;2023-08-08T11:58:51;98273.09;;;26.28;44.01
40850;BME280;26571;41.610;25.380;2023-08-08T12:01:24;98272.00;;;26.35;42.82
40850;BME280;26571;41.610;25.380;2023-08-08T12:03:49;98262.28;;;26.28;41.81
40850;BME280;26571;41.610;25.380;2023-08-08T12:06:15;98265.78;;;26.34;41.93
40850;BME280;26571;41.610;25.380;2023-08-08T12:08:44;98273.63;;;26.36;41.91
40850;BME280;26571;41.610;25.380;2023-08-08T12:11:10;98272.25;;;26.38;42.00
40850;BME280;26571;41.610;25.380;2023-08-08T12:13:40;98267.41;;;26.35;41.72
40850;BME280;26571;41.610;25.380;2023-08-08T12:16:06;98262.84;;;26.36;41.28
40850;BME280;26571;41.610;25.380;2023-08-08T12:18:32;98256.34;;;26.37;40.61
40850;BME280;26571;41.610;25.380;2023-08-08T12:20:57;98248.00;;;26.23;40.36
40850;BME280;26571;41.610;25.380;2023-08-08T12:23:22;98245.31;;;26.18;41.54
40850;BME280;26571;41.610;25.380;2023-08-08T12:25:48;98247.72;;;26.19;41.59
40850;BME280;26571;41.610;25.380;2023-08-08T12:28:13;98246.13;;;26.18;40.00
40850;BME280;26571;41.610;25.380;2023-08-08T12:30:38;98240.19;;;26.16;41.99
40850;BME280;26571;41.610;25.380;2023-08-08T12:33:04;98234.78;;;26.21;41.85
40850;BME280;26571;41.610;25.380;2023-08-08T12:35:29;98236.09;;;26.29;42.39
40850;BME280;26571;41.610;25.380;2023-08-08T12:37:54;98229.09;;;26.23;40.79
40850;BME280;26571;41.610;25.380;2023-08-08T12:40:20;98228.59;;;26.16;40.99
40850;BME280;26571;41.610;25.380;2023-08-08T12:42:45;98231.03;;;26.02;42.17
40850;BME280;26571;41.610;25.380;2023-08-08T12:45:10;98232.66;;;26.03;43.35
40850;BME280;26571;41.610;25.380;2023-08-08T12:47:36;98225.06;;;26.05;43.20
40850;BME280;26571;41.610;25.380;2023-08-08T12:50:03;98230.44;;;26.15;44.26